GIA009 WAHI-WARR
Flight info
| Callsign | GIA009 |
|---|---|
| Flight time | N/A |
| Altitude | 31000 |
| Route | SO DCT BA |
| Aircraft | B738/M-SDE2E3FGHIRWXY/LB1 |
Departure
| Time | 2026-04-21 13:42 |
|---|---|
| Airport | Yogyakarta International Airport (WAHI) |
Arrival
| Time | N/A |
|---|---|
| Airport | Juanda International Airport (WARR) |
| Time | Latitude | Longitude | Altitude | Speed | Heading |
|---|---|---|---|---|---|
| 2026-04-21 12:41 | -7.90054 | 110.05716 | 34 ft | 0 kts | 20° |
| 2026-04-21 13:34 | -7.90059 | 110.05714 | 30 ft | 2 kts | 20° |
| 2026-04-21 13:34 | -7.90077 | 110.05708 | 31 ft | 3 kts | 17° |
| 2026-04-21 13:34 | -7.90097 | 110.05702 | 30 ft | 3 kts | 13° |
| 2026-04-21 13:34 | -7.90117 | 110.05698 | 30 ft | 3 kts | 7° |
| 2026-04-21 13:35 | -7.90136 | 110.05697 | 29 ft | 3 kts | 352° |
| 2026-04-21 13:35 | -7.90153 | 110.05702 | 29 ft | 3 kts | 313° |
| 2026-04-21 13:35 | -7.90159 | 110.05708 | 29 ft | 0 kts | 291° |
| 2026-04-21 13:37 | -7.90149 | 110.05683 | 30 ft | 8 kts | 291° |
| 2026-04-21 13:37 | -7.90121 | 110.05609 | 30 ft | 15 kts | 291° |
| 2026-04-21 13:38 | -7.90077 | 110.05490 | 31 ft | 21 kts | 291° |
| 2026-04-21 13:38 | -7.90017 | 110.05332 | 30 ft | 27 kts | 291° |
| 2026-04-21 13:38 | -7.89966 | 110.05196 | 32 ft | 16 kts | 289° |
| 2026-04-21 13:38 | -7.89980 | 110.05155 | 31 ft | 6 kts | 220° |
| 2026-04-21 13:39 | -7.90041 | 110.05127 | 31 ft | 13 kts | 199° |
| 2026-04-21 13:39 | -7.90099 | 110.05094 | 30 ft | 9 kts | 237° |
| 2026-04-21 13:39 | -7.90091 | 110.05012 | 30 ft | 15 kts | 288° |
| 2026-04-21 13:39 | -7.90047 | 110.04894 | 31 ft | 21 kts | 289° |
| 2026-04-21 13:40 | -7.89990 | 110.04735 | 33 ft | 26 kts | 292° |
| 2026-04-21 13:40 | -7.89921 | 110.04549 | 34 ft | 31 kts | 289° |
| 2026-04-21 13:40 | -7.89867 | 110.04401 | 33 ft | 14 kts | 289° |
| 2026-04-21 13:40 | -7.89856 | 110.04337 | 33 ft | 7 kts | 257° |
| 2026-04-21 13:41 | -7.89905 | 110.04314 | 34 ft | 10 kts | 170° |
| 2026-04-21 13:41 | -7.89980 | 110.04347 | 34 ft | 12 kts | 157° |
| 2026-04-21 13:41 | -7.90026 | 110.04359 | 37 ft | 7 kts | 146° |
| 2026-04-21 13:41 | -7.90044 | 110.04387 | 36 ft | 2 kts | 110° |
| 2026-04-21 13:42 | -7.90140 | 110.04649 | 32 ft | 83 kts | 110° |
| 2026-04-21 13:42 | -7.90426 | 110.05445 | 44 ft | 155 kts | 109° |
| 2026-04-21 13:42 | -7.90883 | 110.06528 | 659 ft | 173 kts | 116° |
| 2026-04-21 13:42 | -7.91412 | 110.07699 | 1330 ft | 194 kts | 119° |
| 2026-04-21 13:43 | -7.92462 | 110.08672 | 1750 ft | 227 kts | 158° |
| 2026-04-21 13:43 | -7.94112 | 110.08857 | 2037 ft | 250 kts | 180° |
| 2026-04-21 13:43 | -7.95850 | 110.08829 | 2689 ft | 257 kts | 178° |
| 2026-04-21 13:43 | -7.97649 | 110.08877 | 3558 ft | 259 kts | 175° |
| 2026-04-21 13:44 | -7.99461 | 110.08997 | 4399 ft | 262 kts | 174° |
| 2026-04-21 13:44 | -8.01297 | 110.09160 | 5172 ft | 267 kts | 173° |
| 2026-04-21 13:44 | -8.03164 | 110.09344 | 5982 ft | 271 kts | 173° |
| 2026-04-21 13:44 | -8.05057 | 110.09516 | 6768 ft | 275 kts | 178° |
| 2026-04-21 13:45 | -8.06942 | 110.09127 | 7512 ft | 281 kts | 201° |
| 2026-04-21 13:45 | -8.08745 | 110.08333 | 8268 ft | 285 kts | 202° |
| 2026-04-21 13:45 | -8.10565 | 110.07520 | 9009 ft | 289 kts | 202° |
| 2026-04-21 13:45 | -8.12366 | 110.06625 | 9733 ft | 295 kts | 214° |
| 2026-04-21 13:46 | -8.13750 | 110.05078 | 10405 ft | 302 kts | 240° |
| 2026-04-21 13:46 | -8.14363 | 110.03049 | 11073 ft | 308 kts | 266° |
| 2026-04-21 13:46 | -8.14062 | 110.00902 | 11727 ft | 313 kts | 292° |
| 2026-04-21 13:46 | -8.12885 | 109.99057 | 12404 ft | 315 kts | 317° |
| 2026-04-21 13:47 | -8.11057 | 109.97861 | 13078 ft | 316 kts | 342° |
| 2026-04-21 13:47 | -8.08903 | 109.97533 | 13746 ft | 315 kts | 7° |
| 2026-04-21 13:47 | -8.06823 | 109.98160 | 14316 ft | 314 kts | 31° |
| 2026-04-21 13:47 | -8.05053 | 109.99451 | 14930 ft | 315 kts | 41° |
| 2026-04-21 13:48 | -8.03395 | 110.00917 | 15520 ft | 318 kts | 43° |
| 2026-04-21 13:48 | -8.01771 | 110.02409 | 16095 ft | 322 kts | 44° |
| 2026-04-21 13:48 | -8.00108 | 110.03936 | 16688 ft | 325 kts | 43° |
| 2026-04-21 13:48 | -7.98422 | 110.05466 | 17286 ft | 328 kts | 43° |
| 2026-04-21 13:49 | -7.96709 | 110.07004 | 17874 ft | 331 kts | 43° |